Time;durP1;ratioP1;P1;durP2;ratioP2;P2;SDS_P1;SDS_P2;PMS_P1;PMS_P2;Temp;Humidity;BMP_temperature;BMP_pressure;BME280_temperature;BME280_humidity;BME280_pressure;Samples;Min_cycle;Max_cycle;Signal;HPM_P1;HPM_P2
2023/01/11 00:00:10;;;;;;;5.05;2.80;;;;;;;1.20;67.56;93219.69;2071687;69;20164;-74
2023/01/11 00:02:39;;;;;;;5.55;2.90;;;;;;;1.31;67.68;93218.69;2071425;69;20191;-73
2023/01/11 00:05:06;;;;;;;6.47;3.00;;;;;;;1.39;68.00;93232.66;2068467;69;20155;-72
2023/01/11 00:07:32;;;;;;;6.15;2.70;;;;;;;1.28;67.87;93228.06;2071641;69;20144;-76
2023/01/11 00:09:57;;;;;;;5.47;2.63;;;;;;;1.33;67.50;93218.91;2071527;69;20171;-79
2023/01/11 00:12:23;;;;;;;5.18;3.00;;;;;;;1.43;66.75;93224.75;2071757;69;20144;-74
2023/01/11 00:14:48;;;;;;;5.43;2.80;;;;;;;1.51;66.40;93217.22;2071500;69;20167;-72
2023/01/11 00:17:14;;;;;;;20.42;6.90;;;;;;;1.16;68.19;93207.44;2068330;69;20144;-74
2023/01/11 00:19:40;;;;;;;25.88;8.60;;;;;;;1.45;67.26;93206.25;2067787;69;20168;-74
2023/01/11 00:22:05;;;;;;;15.18;6.00;;;;;;;1.51;66.61;93203.34;2071175;69;20151;-78
2023/01/11 00:24:31;;;;;;;12.38;4.38;;;;;;;1.58;66.50;93207.50;2068426;69;20654;-72
2023/01/11 00:26:57;;;;;;;8.93;3.78;;;;;;;1.60;65.95;93194.53;2071873;69;20148;-79
2023/01/11 00:29:22;;;;;;;12.65;4.80;;;;;;;1.54;65.58;93191.16;2070987;69;20198;-77
2023/01/11 00:31:48;;;;;;;17.67;6.20;;;;;;;1.53;65.65;93186.91;2071181;69;20161;-76
2023/01/11 00:34:14;;;;;;;10.45;4.50;;;;;;;1.27;67.39;93182.94;2071726;69;20191;-73
2023/01/11 00:36:39;;;;;;;5.38;2.83;;;;;;;1.02;69.87;93182.50;2071589;69;20274;-79
2023/01/11 00:39:05;;;;;;;5.47;1.95;;;;;;;1.14;69.39;93188.53;2071327;69;20156;-74
2023/01/11 00:49:44;;;;;;;6.28;2.30;;;;;;;1.59;67.20;93181.97;2070788;69;20141;-79
2023/01/11 00:52:10;;;;;;;5.63;2.53;;;;;;;1.59;67.02;93184.75;2071957;69;20175;-76
2023/01/11 00:54:36;;;;;;;5.50;2.35;;;;;;;1.65;66.71;93184.59;2071913;69;20156;-78
2023/01/11 00:57:02;;;;;;;6.75;2.40;;;;;;;1.58;66.87;93186.03;2071903;69;20220;-79
2023/01/11 00:59:28;;;;;;;4.07;2.08;;;;;;;1.53;66.67;93186.91;2071814;69;20163;-78
2023/01/11 01:01:54;;;;;;;4.40;2.30;;;;;;;1.55;66.56;93195.44;2071641;69;20605;-73
2023/01/11 01:04:19;;;;;;;4.15;2.55;;;;;;;1.64;66.05;93194.22;2071708;69;20182;-73
2023/01/11 01:06:45;;;;;;;4.03;2.38;;;;;;;1.65;66.28;93190.16;2068408;69;20148;-73
2023/01/11 01:09:11;;;;;;;4.40;2.30;;;;;;;1.62;66.91;93183.66;2071825;69;20148;-72
2023/01/11 01:11:36;;;;;;;7.53;2.53;;;;;;;1.56;67.39;93185.06;2071708;69;20144;-75
2023/01/11 01:16:46;;;;;;;8.32;4.43;;;;;;;1.64;67.15;93185.88;2071721;69;20184;-72
2023/01/11 01:19:13;;;;;;;7.13;4.47;;;;;;;1.61;67.65;93189.75;2071903;69;20572;-77
2023/01/11 01:21:38;;;;;;;7.88;4.57;;;;;;;1.70;67.26;93192.81;2070825;69;20160;-74
2023/01/11 01:24:04;;;;;;;9.07;4.97;;;;;;;1.72;67.22;93181.91;2071244;69;20202;-73
2023/01/11 01:26:30;;;;;;;7.55;4.10;;;;;;;1.74;67.40;93178.56;2071437;69;20136;-78
2023/01/11 01:28:56;;;;;;;8.80;4.00;;;;;;;1.78;67.20;93178.97;2071157;69;20568;-75
2023/01/11 01:31:22;;;;;;;6.47;4.20;;;;;;;1.77;67.26;93186.56;2071073;69;20137;-73
2023/01/11 01:33:47;;;;;;;7.57;3.70;;;;;;;1.70;67.25;93187.25;2068243;69;20290;-71
2023/01/11 01:36:13;;;;;;;6.15;3.60;;;;;;;1.66;67.83;93191.66;2071313;69;20143;-71
2023/01/11 01:38:39;;;;;;;7.90;3.55;;;;;;;1.75;67.80;93189.16;2071458;69;20156;-72
2023/01/11 01:41:05;;;;;;;5.28;3.33;;;;;;;1.66;68.79;93191.66;2068235;69;20197;-73
2023/01/11 01:43:58;;;;;;;7.65;3.40;;;;;;;1.79;68.23;93194.38;2071554;69;20580;-75
2023/01/11 01:46:32;;;;;;;5.65;3.22;;;;;;;1.70;67.76;93187.25;2071406;69;20610;-71
2023/01/11 01:49:03;;;;;;;4.53;2.88;;;;;;;1.68;68.44;93195.38;2071603;69;20206;-71
2023/01/11 01:51:53;;;;;;;4.97;2.95;;;;;;;1.79;68.40;93199.94;2071575;69;20274;-70
2023/01/11 01:54:26;;;;;;;6.82;4.03;;;;;;;1.86;68.29;93190.16;2071622;69;20218;-72
2023/01/11 01:57:02;;;;;;;7.05;3.40;;;;;;;1.91;67.64;93192.78;2071546;69;20206;-73
2023/01/11 01:59:31;;;;;;;7.20;3.97;;;;;;;1.85;68.37;93192.19;2071665;69;20164;-72
2023/01/11 02:01:58;;;;;;;5.47;3.05;;;;;;;1.85;68.68;93183.88;2071472;69;20154;-72
2023/01/11 02:04:55;;;;;;;6.97;3.60;;;;;;;1.83;68.65;93183.66;2071343;69;20148;-75
2023/01/11 02:07:27;;;;;;;5.70;2.83;;;;;;;1.89;68.22;93175.94;2053849;70;20666;-72
2023/01/11 02:09:58;;;;;;;5.07;3.03;;;;;;;1.71;68.39;93169.31;2054075;69;20149;-74
2023/01/11 02:12:27;;;;;;;7.45;3.13;;;;;;;1.74;68.97;93164.69;2053923;70;20149;-74
2023/01/11 02:14:54;;;;;;;6.80;3.15;;;;;;;1.62;69.23;93175.34;2054124;69;20157;-71
2023/01/11 02:17:20;;;;;;;3.05;1.85;;;;;;;1.44;70.16;93168.69;2053954;69;20168;-72
2023/01/11 02:20:04;;;;;;;3.75;2.20;;;;;;;1.77;69.21;93166.41;2054041;69;20145;-75
2023/01/11 02:22:57;;;;;;;2.70;2.05;;;;;;;1.85;69.50;93169.25;2051329;70;20652;-75
2023/01/11 02:26:00;;;;;;;3.67;2.30;;;;;;;1.87;68.60;93158.31;2054108;70;20232;-76
2023/01/11 02:28:34;;;;;;;5.53;2.53;;;;;;;1.84;68.84;93159.44;2054137;70;20138;-72
2023/01/11 02:31:12;;;;;;;4.47;2.53;;;;;;;1.85;68.87;93149.81;2053765;70;20193;-73
2023/01/11 02:33:53;;;;;;;5.30;2.53;;;;;;;1.81;69.24;93143.84;2053996;70;20587;-73
2023/01/11 02:36:49;;;;;;;5.20;2.22;;;;;;;1.45;70.28;93133.38;2054266;70;20173;-72
2023/01/11 02:39:29;;;;;;;5.97;2.53;;;;;;;1.72;69.53;93131.19;2051782;70;20541;-73
2023/01/11 02:45:00;;;;;;;6.03;3.92;;;;;;;1.52;69.46;93124.38;2070739;69;20140;-74
2023/01/11 02:47:44;;;;;;;7.45;4.20;;;;;;;1.69;69.61;93126.72;2071362;69;20178;-72
2023/01/11 02:50:33;;;;;;;5.90;3.95;;;;;;;1.74;69.36;93134.94;2065095;69;20639;-76
2023/01/11 02:53:02;;;;;;;5.95;3.30;;;;;;;1.78;69.13;93135.31;2071340;69;20648;-74
2023/01/11 02:55:40;;;;;;;5.50;2.50;;;;;;;1.74;68.99;93129.38;2071145;69;20136;-76
2023/01/11 02:58:09;;;;;;;3.10;2.20;;;;;;;1.62;69.45;93128.16;2067845;69;20470;-73
2023/01/11 03:00:39;;;;;;;4.65;2.55;;;;;;;1.73;69.36;93116.75;2071266;69;20140;-73
2023/01/11 03:03:16;;;;;;;6.18;2.58;;;;;;;1.72;69.50;93123.59;2067792;69;20149;-72
2023/01/11 03:05:54;;;;;;;4.10;2.40;;;;;;;1.65;69.74;93112.44;2071384;69;20151;-73
2023/01/11 03:08:40;;;;;;;3.95;2.40;;;;;;;1.72;69.57;93123.59;2071385;69;20609;-70
2023/01/11 03:14:33;;;;;;;4.78;2.65;;;;;;;1.35;70.85;93110.16;2071573;69;20621;-73
2023/01/11 03:17:06;;;;;;;6.88;2.72;;;;;;;1.25;71.91;93110.63;2071211;69;20614;-72
2023/01/11 03:19:40;;;;;;;4.85;2.50;;;;;;;1.47;70.94;93114.16;2071428;69;20164;-78
2023/01/11 03:22:51;;;;;;;3.65;2.28;;;;;;;1.53;70.04;93101.63;2068088;69;20219;-74
2023/01/11 03:26:02;;;;;;;3.20;2.10;;;;;;;1.58;69.95;93108.31;2071440;69;20164;-77
2023/01/11 03:28:50;;;;;;;4.88;2.53;;;;;;;1.44;70.23;93104.13;2065943;69;20153;-76
2023/01/11 03:31:19;;;;;;;4.38;2.30;;;;;;;1.36;70.60;93095.75;2071223;69;20194;-73
2023/01/11 03:34:17;;;;;;;3.95;2.35;;;;;;;1.36;70.85;93109.59;2071503;69;20140;-72
2023/01/11 03:37:04;;;;;;;6.03;2.45;;;;;;;1.32;71.09;93111.22;2071388;69;20314;-71
2023/01/11 03:39:34;;;;;;;3.28;2.10;;;;;;;1.25;71.22;93107.88;2068513;69;20255;-72
2023/01/11 03:42:04;;;;;;;5.72;2.40;;;;;;;1.24;70.83;93108.41;2071873;69;20148;-72
2023/01/11 03:44:34;;;;;;;7.47;2.25;;;;;;;0.82;73.51;93107.59;2071882;69;20717;-72
2023/01/11 03:47:05;;;;;;;4.40;2.40;;;;;;;0.97;71.87;93111.28;2068359;69;20164;-72
2023/01/11 03:49:44;;;;;;;4.88;2.45;;;;;;;1.09;71.31;93100.66;2068413;69;20245;-76
2023/01/11 03:52:14;;;;;;;3.33;1.98;;;;;;;0.99;71.62;93097.63;2071697;69;20191;-74
2023/01/11 03:54:42;;;;;;;4.93;2.17;;;;;;;1.07;71.67;93103.25;2071928;69;20199;-74
2023/01/11 03:57:30;;;;;;;6.35;2.30;;;;;;;0.93;70.71;93096.25;2071771;69;20251;-72
2023/01/11 03:59:56;;;;;;;5.40;2.22;;;;;;;0.88;71.24;93086.78;2071792;69;20176;-76
2023/01/11 04:02:26;;;;;;;35.65;19.75;;;;;;;0.87;72.00;93092.84;2071692;69;20241;-77
2023/01/11 04:04:52;;;;;;;16.80;9.27;;;;;;;0.87;71.13;93085.31;2072064;69;20221;-77
2023/01/11 04:07:17;;;;;;;6.75;3.30;;;;;;;0.87;71.03;93090.09;2071780;69;20184;-72
2023/01/11 04:09:44;;;;;;;5.82;2.60;;;;;;;0.82;71.68;93086.16;2068408;69;20594;-76
2023/01/11 04:12:10;;;;;;;4.82;3.03;;;;;;;0.84;70.64;93097.47;2071654;69;20268;-74
2023/01/11 04:14:35;;;;;;;5.40;2.40;;;;;;;0.74;70.58;93094.41;2068268;69;20580;-75
2023/01/11 04:17:01;;;;;;;5.68;2.55;;;;;;;0.47;71.25;93093.72;2071670;69;20144;-72
2023/01/11 04:19:27;;;;;;;4.22;2.30;;;;;;;0.22;73.59;93096.00;2068431;69;20235;-72
2023/01/11 04:21:53;;;;;;;4.38;2.40;;;;;;;0.59;72.33;93105.31;2068280;69;20515;-75
2023/01/11 04:24:18;;;;;;;4.68;2.55;;;;;;;0.62;72.13;93100.72;2071693;69;20144;-78
2023/01/11 04:26:44;;;;;;;3.80;2.88;;;;;;;0.61;71.65;93099.97;2071580;69;20192;-76
2023/01/11 04:29:10;;;;;;;4.25;2.47;;;;;;;0.60;72.37;93090.19;2071622;69;20164;-73
2023/01/11 04:31:35;;;;;;;6.10;3.28;;;;;;;0.64;71.00;93089.84;2071529;69;20168;-77
2023/01/11 04:34:01;;;;;;;6.47;3.10;;;;;;;0.63;71.69;93091.13;2071566;69;20248;-75
2023/01/11 04:36:29;;;;;;;4.90;3.10;;;;;;;0.68;72.10;93081.94;2068285;69;20136;-77
2023/01/11 04:38:56;;;;;;;7.05;3.20;;;;;;;0.72;70.87;93085.88;2068354;69;20148;-76
2023/01/11 04:44:06;;;;;;;6.20;3.55;;;;;;;0.70;70.70;93074.59;2071803;69;20153;-70
2023/01/11 04:46:31;;;;;;;4.78;3.33;;;;;;;0.70;70.86;93071.81;2068323;69;20155;-74
2023/01/11 04:48:57;;;;;;;7.57;3.55;;;;;;;0.49;71.69;93065.47;2071590;69;20175;-76
2023/01/11 04:51:26;;;;;;;5.93;3.90;;;;;;;0.46;72.42;93064.53;2071553;69;20152;-74
2023/01/11 04:53:52;;;;;;;7.78;3.30;;;;;;;0.62;71.71;93068.22;2071416;69;20168;-71
2023/01/11 04:56:18;;;;;;;6.03;3.25;;;;;;;0.38;72.49;93069.25;2071267;69;20152;-75
2023/01/11 04:58:43;;;;;;;7.40;3.38;;;;;;;0.40;72.97;93063.16;2068188;69;20140;-77
2023/01/11 05:01:10;;;;;;;6.65;2.97;;;;;;;0.50;72.80;93058.66;2071493;69;20580;-78
2023/01/11 05:03:36;;;;;;;5.28;3.10;;;;;;;0.52;71.73;93055.34;2071504;69;20213;-72
2023/01/11 05:06:03;;;;;;;4.57;2.80;;;;;;;0.38;72.04;93058.16;2071690;69;20148;-77
2023/01/11 05:08:29;;;;;;;5.53;2.80;;;;;;;0.48;71.81;93052.91;2071662;69;20617;-72
2023/01/11 05:11:01;;;;;;;6.57;2.88;;;;;;;0.48;71.78;93045.34;2071649;69;20586;-71
2023/01/11 05:13:42;;;;;;;4.37;3.00;;;;;;;0.47;70.90;93046.63;2068524;69;20149;-76
2023/01/11 05:16:11;;;;;;;5.70;2.97;;;;;;;0.34;72.03;93048.69;2071758;69;20144;-74
2023/01/11 05:18:46;;;;;;;12.45;5.07;;;;;;;0.44;71.44;93047.69;2071716;69;20147;-73
2023/01/11 05:21:16;;;;;;;13.38;4.78;;;;;;;0.35;71.68;93048.16;2068404;69;20132;-72
2023/01/11 05:23:42;;;;;;;10.95;4.47;;;;;;;0.40;71.50;93044.50;2068315;69;20154;-73
2023/01/11 05:26:11;;;;;;;7.93;3.10;;;;;;;0.16;72.91;93051.06;2071701;69;20290;-72
2023/01/11 05:28:37;;;;;;;7.22;3.38;;;;;;;0.17;73.08;93049.03;2071682;69;20208;-72
2023/01/11 05:31:03;;;;;;;5.07;2.70;;;;;;;0.25;72.83;93042.31;2068129;69;20157;-71
2023/01/11 05:33:30;;;;;;;5.78;3.00;;;;;;;0.12;73.02;93058.19;2071586;69;20136;-76
2023/01/11 05:35:58;;;;;;;7.82;3.05;;;;;;;-0.07;73.53;93066.63;2068256;69;20206;-72
2023/01/11 05:38:23;;;;;;;7.53;3.15;;;;;;;0.03;74.05;93059.38;2068186;69;20594;-72
2023/01/11 05:40:56;;;;;;;5.40;2.47;;;;;;;0.11;73.05;93056.72;2071797;69;20668;-76
2023/01/11 05:43:22;;;;;;;6.32;2.97;;;;;;;-0.18;73.30;93050.22;2071487;69;20217;-75
2023/01/11 05:45:48;;;;;;;13.82;6.65;;;;;;;0.06;73.11;93033.41;2071504;69;20163;-72
2023/01/11 05:48:14;;;;;;;13.00;6.60;;;;;;;0.12;72.71;93034.03;2071579;69;20144;-71
2023/01/11 05:50:41;;;;;;;10.85;5.07;;;;;;;0.07;72.22;93032.13;2071474;69;20136;-71
2023/01/11 05:53:06;;;;;;;8.68;4.78;;;;;;;0.03;72.69;93028.94;2071451;69;20209;-71
2023/01/11 05:55:32;;;;;;;10.75;5.32;;;;;;;0.13;72.93;93054.88;2071628;69;20503;-71
2023/01/11 05:57:58;;;;;;;10.73;5.75;;;;;;;-0.04;73.41;93043.44;2071597;69;20594;-70
2023/01/11 06:00:24;;;;;;;7.72;4.00;;;;;;;-0.07;73.28;93058.34;2071382;69;20595;-71
2023/01/11 06:02:49;;;;;;;36.13;12.90;;;;;;;-0.24;74.07;93052.38;2071525;69;20166;-72
2023/01/11 06:05:15;;;;;;;57.42;22.13;;;;;;;-0.12;73.80;93048.84;2071489;69;20150;-73
2023/01/11 06:07:41;;;;;;;65.15;23.60;;;;;;;-0.03;73.39;93058.75;2071601;69;20144;-75
2023/01/11 06:10:08;;;;;;;55.40;21.40;;;;;;;-0.01;72.68;93056.94;2071522;69;20149;-76
2023/01/11 06:12:33;;;;;;;34.33;13.82;;;;;;;-0.07;73.11;93061.09;2071271;69;20152;-77
2023/01/11 06:14:59;;;;;;;30.92;12.40;;;;;;;-0.06;72.78;93063.31;2071490;69;20503;-72
2023/01/11 06:17:25;;;;;;;25.70;11.23;;;;;;;-0.06;72.77;93068.13;2068104;69;20610;-72
2023/01/11 06:19:51;;;;;;;31.65;13.23;;;;;;;-0.06;73.03;93062.59;2071562;69;20133;-73
2023/01/11 06:22:16;;;;;;;27.42;12.18;;;;;;;-0.05;72.45;93064.81;2071587;69;20144;-72
2023/01/11 06:24:42;;;;;;;24.77;13.40;;;;;;;-0.34;74.29;93054.81;2071551;69;20518;-72
2023/01/11 06:27:07;;;;;;;27.90;13.52;;;;;;;-0.17;73.66;93068.34;2071484;69;20140;-72
2023/01/11 06:29:33;;;;;;;26.77;12.25;;;;;;;-0.15;72.79;93069.28;2071417;69;20616;-73
2023/01/11 06:31:59;;;;;;;19.00;9.98;;;;;;;-0.13;72.79;93063.97;2071313;69;20144;-72
2023/01/11 06:34:24;;;;;;;21.55;10.45;;;;;;;-0.16;73.18;93062.28;2071408;69;20146;-73
2023/01/11 06:36:50;;;;;;;17.67;8.88;;;;;;;-0.07;72.77;93058.34;2071533;69;20166;-76
2023/01/11 06:39:16;;;;;;;18.70;8.88;;;;;;;-0.13;71.66;93061.22;2071493;69;20140;-75
2023/01/11 06:41:41;;;;;;;14.55;7.13;;;;;;;-0.17;72.29;93058.00;2071540;69;20180;-78
2023/01/11 06:44:07;;;;;;;12.18;6.55;;;;;;;-0.04;72.56;93060.03;2071506;69;20518;-78
2023/01/11 06:46:32;;;;;;;11.30;5.68;;;;;;;-0.17;72.78;93062.81;2068057;69;20595;-73
2023/01/11 06:49:00;;;;;;;12.18;5.50;;;;;;;-0.14;72.48;93061.72;2071520;69;20156;-73
2023/01/11 06:51:25;;;;;;;13.15;5.82;;;;;;;-0.23;72.37;93053.84;2071470;69;20160;-76
2023/01/11 06:53:51;;;;;;;37.25;16.27;;;;;;;-0.17;72.68;93068.34;2071501;69;20221;-73
2023/01/11 06:56:19;;;;;;;22.33;10.18;;;;;;;-0.19;72.16;93073.66;2071616;69;20542;-75
2023/01/11 06:58:46;;;;;;;16.05;7.68;;;;;;;-0.17;71.19;93074.63;2071473;69;20594;-76
2023/01/11 07:01:12;;;;;;;10.80;5.10;;;;;;;-0.17;71.33;93065.56;2068047;69;20231;-74
2023/01/11 07:03:40;;;;;;;7.88;4.35;;;;;;;-0.19;71.80;93063.31;2071452;69;20239;-75
2023/01/11 07:06:06;;;;;;;8.55;3.20;;;;;;;-0.18;71.39;93062.06;2071578;69;20148;-74
2023/01/11 07:08:32;;;;;;;6.57;3.25;;;;;;;-0.26;71.36;93070.25;2071398;69;20131;-74
2023/01/11 07:10:57;;;;;;;16.83;7.55;;;;;;;-0.53;72.79;93068.75;2071435;69;20311;-79
2023/01/11 07:13:23;;;;;;;14.93;8.05;;;;;;;-0.53;73.94;93063.22;2071623;69;20160;-76
2023/01/11 07:15:49;;;;;;;28.95;15.48;;;;;;;-0.40;73.88;93059.72;2072014;69;20148;-78
2023/01/11 07:18:16;;;;;;;28.10;16.55;;;;;;;-0.35;73.71;93053.34;2071848;69;20597;-78
2023/01/11 07:20:41;;;;;;;17.27;10.73;;;;;;;-0.23;73.58;93054.59;2068588;69;20138;-74
2023/01/11 07:23:08;;;;;;;20.00;9.50;;;;;;;-0.25;72.84;93068.22;2068750;69;20143;-73
2023/01/11 07:25:34;;;;;;;21.13;10.05;;;;;;;-0.22;73.27;93056.09;2071867;69;20143;-74
2023/01/11 07:28:03;;;;;;;17.17;7.72;;;;;;;-0.17;72.99;93060.03;2071829;69;20163;-72
2023/01/11 07:30:30;;;;;;;13.13;6.35;;;;;;;-0.14;72.79;93047.88;2071616;69;20241;-72
2023/01/11 07:32:57;;;;;;;21.05;9.43;;;;;;;-0.40;74.04;93066.00;2071679;69;20152;-74
2023/01/11 07:35:24;;;;;;;19.67;8.70;;;;;;;-0.42;74.69;93070.56;2071944;69;20607;-74
2023/01/11 07:37:49;;;;;;;21.35;9.57;;;;;;;-0.16;73.84;93078.88;2071960;69;20167;-79
2023/01/11 07:40:16;;;;;;;16.92;7.88;;;;;;;-0.10;73.53;93084.28;2068563;69;20591;-75
2023/01/11 07:45:36;;;;;;;14.80;7.07;;;;;;;0.00;73.00;93082.59;2071710;69;20132;-79
2023/01/11 07:48:03;;;;;;;20.50;6.85;;;;;;;-0.18;74.31;93091.75;2068391;69;20144;-76
2023/01/11 07:50:30;;;;;;;24.38;10.50;;;;;;;0.00;73.79;93079.84;2071636;69;20179;-78
2023/01/11 07:52:55;;;;;;;30.23;10.35;;;;;;;0.10;73.51;93078.13;2071801;69;20594;-78
2023/01/11 07:55:22;;;;;;;16.13;7.15;;;;;;;0.22;73.16;93090.44;2068528;69;20144;-78
2023/01/11 07:57:48;;;;;;;15.38;7.03;;;;;;;0.24;73.61;93090.69;2071953;69;20151;-75
2023/01/11 08:00:14;;;;;;;15.98;6.78;;;;;;;0.38;72.88;93076.81;2071870;69;20136;-76
2023/01/11 08:02:40;;;;;;;10.38;4.78;;;;;;;0.46;72.69;93085.97;2071842;69;20140;-78
2023/01/11 08:05:06;;;;;;;27.15;11.75;;;;;;;-0.11;74.13;93085.56;2065783;69;20171;-73
2023/01/11 08:07:31;;;;;;;20.95;9.30;;;;;;;0.26;73.82;93095.66;2071769;69;20156;-73
2023/01/11 08:09:57;;;;;;;18.92;8.65;;;;;;;0.42;73.33;93080.00;2071818;69;20231;-72
2023/01/11 08:15:09;;;;;;;36.17;14.07;;;;;;;0.11;74.82;93068.53;2068384;69;20557;-77
2023/01/11 08:17:35;;;;;;;25.75;12.23;;;;;;;0.29;74.76;93077.25;2068422;69;20151;-76
2023/01/11 08:20:01;;;;;;;23.98;11.45;;;;;;;0.57;73.76;93068.34;2071907;69;20176;-78
2023/01/11 08:22:26;;;;;;;24.40;12.60;;;;;;;0.66;73.16;93067.88;2071909;69;20276;-73
2023/01/11 08:24:52;;;;;;;25.20;12.23;;;;;;;0.70;72.98;93069.03;2071876;69;20212;-73
2023/01/11 08:27:18;;;;;;;23.20;12.50;;;;;;;0.85;72.91;93070.50;2068401;69;20235;-74
2023/01/11 08:29:43;;;;;;;23.92;12.57;;;;;;;0.93;72.79;93074.81;2071214;69;20140;-75
2023/01/11 08:32:12;;;;;;;22.08;12.32;;;;;;;0.97;72.22;93075.25;2071684;69;20233;-79
2023/01/11 08:34:38;;;;;;;24.35;12.48;;;;;;;0.89;72.42;93071.66;2071842;69;20148;-74
2023/01/11 08:37:04;;;;;;;24.85;12.27;;;;;;;0.89;72.86;93074.41;2071816;69;20140;-77
2023/01/11 08:39:30;;;;;;;19.98;11.15;;;;;;;1.11;72.14;93077.97;2072140;69;20147;-78
2023/01/11 08:41:57;;;;;;;27.13;12.40;;;;;;;1.16;72.30;93066.72;2072034;69;20137;-73
2023/01/11 08:44:22;;;;;;;22.45;12.32;;;;;;;1.41;71.92;93080.97;2071817;69;20152;-74
2023/01/11 08:46:48;;;;;;;22.67;13.13;;;;;;;1.30;71.81;93075.72;2071840;69;20151;-79
2023/01/11 08:49:14;;;;;;;29.08;15.07;;;;;;;1.26;71.79;93064.22;2071814;69;20117;-77
2023/01/11 08:51:41;;;;;;;35.33;16.35;;;;;;;1.54;71.54;93063.53;2071739;69;20586;-76
2023/01/11 08:54:11;;;;;;;52.80;24.40;;;;;;;1.72;71.43;93064.56;2071874;69;20140;-74
2023/01/11 08:56:37;;;;;;;44.72;20.45;;;;;;;1.80;71.09;93062.59;2071820;69;20163;-78
2023/01/11 08:59:04;;;;;;;46.13;22.00;;;;;;;1.93;71.16;93056.22;2071792;69;20124;-75
2023/01/11 09:01:30;;;;;;;60.67;27.15;;;;;;;2.02;70.33;93055.72;2068354;69;20231;-78
2023/01/11 09:03:55;;;;;;;63.38;28.85;;;;;;;2.16;70.33;93054.31;2068628;69;20151;-76
2023/01/11 09:06:21;;;;;;;48.97;23.85;;;;;;;2.23;70.10;93059.13;2071957;69;20183;-78
2023/01/11 09:08:47;;;;;;;46.25;22.00;;;;;;;2.30;69.94;93063.25;2072032;69;20155;-78
2023/01/11 09:13:57;;;;;;;43.70;22.23;;;;;;;2.64;68.96;93043.56;2071823;69;20133;-76
2023/01/11 09:16:22;;;;;;;34.80;18.48;;;;;;;2.54;68.80;93043.34;2071725;69;20221;-80
2023/01/11 09:18:48;;;;;;;23.25;13.38;;;;;;;2.44;68.53;93042.38;2071790;69;20224;-77
2023/01/11 09:21:14;;;;;;;29.35;12.32;;;;;;;2.77;68.21;93042.66;2071848;69;20223;-75
2023/01/11 09:23:40;;;;;;;24.67;12.68;;;;;;;2.94;68.21;93042.91;2071804;69;20174;-72
2023/01/11 09:26:05;;;;;;;20.77;12.25;;;;;;;3.12;67.46;93038.31;2068513;69;20160;-75
2023/01/11 09:28:31;;;;;;;21.27;13.02;;;;;;;3.24;66.95;93036.63;2071847;69;20136;-73
2023/01/11 09:30:57;;;;;;;25.42;12.40;;;;;;;3.36;66.43;93025.88;2071643;69;20614;-74
2023/01/11 09:33:22;;;;;;;24.88;11.65;;;;;;;3.58;65.97;93023.66;2071694;69;20333;-75
2023/01/11 09:35:50;;;;;;;15.00;8.25;;;;;;;3.71;65.18;93020.66;2068249;69;20578;-79
2023/01/11 09:38:16;;;;;;;11.93;6.50;;;;;;;3.65;63.67;93022.91;2071765;69;20151;-74
2023/01/11 09:41:04;;;;;;;13.35;6.95;;;;;;;2.83;66.45;93031.38;2071679;69;20145;-73
2023/01/11 09:43:30;;;;;;;10.73;6.30;;;;;;;3.45;66.20;93032.94;2068303;69;20175;-75
2023/01/11 09:46:03;;;;;;;14.27;6.68;;;;;;;3.66;65.71;93030.69;2071683;69;20259;-76
2023/01/11 09:48:43;;;;;;;14.73;7.38;;;;;;;3.65;63.85;93029.22;2068280;69;20255;-79
2023/01/11 09:51:14;;;;;;;15.23;7.80;;;;;;;3.83;63.84;93030.13;2071910;69;20239;-74
2023/01/11 09:53:45;;;;;;;15.13;7.80;;;;;;;3.97;63.74;93027.88;2071631;69;20397;-75
2023/01/11 09:56:15;;;;;;;13.80;7.90;;;;;;;3.93;63.87;93035.88;2068310;69;20145;-75
2023/01/11 09:58:52;;;;;;;13.50;7.18;;;;;;;4.06;63.37;93035.66;2071740;69;20203;-73
2023/01/11 10:01:52;;;;;;;15.68;7.85;;;;;;;4.41;64.57;93030.38;2071574;69;20176;-72
2023/01/11 10:04:28;;;;;;;21.30;9.13;;;;;;;4.52;63.99;93005.59;2071712;69;20175;-73
2023/01/11 10:07:14;;;;;;;20.17;9.32;;;;;;;4.55;62.30;92996.09;2071677;69;20237;-73
2023/01/11 10:10:12;;;;;;;17.27;9.32;;;;;;;4.65;62.72;92999.03;2068227;69;20151;-74
2023/01/11 10:13:03;;;;;;;16.90;9.15;;;;;;;5.10;62.61;92986.13;2071779;69;20251;-73
2023/01/11 10:15:37;;;;;;;16.63;8.70;;;;;;;5.25;60.73;92988.78;2071619;69;20223;-73
2023/01/11 10:18:23;;;;;;;17.52;9.98;;;;;;;4.99;61.18;92994.91;2068254;69;20159;-74
2023/01/11 10:20:54;;;;;;;23.63;11.70;;;;;;;5.79;62.58;92980.72;2068374;69;20233;-74
2023/01/11 10:23:40;;;;;;;15.82;8.57;;;;;;;6.01;58.79;92984.63;2071657;69;20603;-73
2023/01/11 10:26:23;;;;;;;15.00;8.55;;;;;;;6.12;58.22;92963.81;2071595;69;20518;-74
2023/01/11 10:29:20;;;;;;;16.85;8.63;;;;;;;6.39;57.23;92961.09;2071653;69;20141;-75
2023/01/11 10:34:58;;;;;;;15.90;9.40;;;;;;;6.81;55.38;92951.78;2068295;69;20202;-74
2023/01/11 10:43:30;;;;;;;12.25;7.03;;;;;;;8.07;51.52;92947.34;2063908;69;20141;-75
2023/01/11 10:46:00;;;;;;;14.43;7.80;;;;;;;7.68;49.84;92946.53;2068232;69;20141;-77
2023/01/11 10:48:41;;;;;;;15.48;7.95;;;;;;;7.13;51.39;92948.72;2068778;69;20223;-77
2023/01/11 10:51:31;;;;;;;16.33;8.13;;;;;;;6.62;53.57;92958.75;2068228;69;20156;-73
2023/01/11 10:54:15;;;;;;;16.23;7.70;;;;;;;7.45;52.58;92955.31;2068108;69;20148;-74
2023/01/11 10:56:59;;;;;;;16.27;7.20;;;;;;;7.24;50.77;92955.09;2068724;69;20171;-75
2023/01/11 10:59:50;;;;;;;16.30;8.60;;;;;;;6.67;53.50;92948.63;2068559;69;20574;-74
2023/01/11 11:02:46;;;;;;;15.52;9.43;;;;;;;7.11;53.12;92945.03;2068411;69;20152;-73
2023/01/11 11:05:35;;;;;;;17.70;10.57;;;;;;;7.72;52.83;92930.03;2068702;69;20189;-72
2023/01/11 11:08:06;;;;;;;19.08;10.45;;;;;;;7.40;51.48;92933.94;2068433;69;20606;-72
2023/01/11 11:10:42;;;;;;;16.23;8.88;;;;;;;7.42;51.07;92933.34;2068502;69;20125;-73
2023/01/11 11:13:36;;;;;;;18.75;10.13;;;;;;;8.26;51.36;92924.16;2068561;69;20157;-72
2023/01/11 11:16:21;;;;;;;16.38;10.05;;;;;;;8.86;49.83;92932.69;2068438;69;20228;-73
2023/01/11 11:18:51;;;;;;;15.93;9.98;;;;;;;8.64;48.33;92923.41;2068498;69;20136;-73
2023/01/11 11:21:24;;;;;;;20.45;11.85;;;;;;;8.58;48.62;92925.06;2067987;69;20607;-72
2023/01/11 11:23:58;;;;;;;;;;;;;;;8.89;48.40;92925.91;2068663;69;20247;-72
2023/01/11 11:26:29;;;;;;;17.33;9.50;;;;;;;9.03;48.66;92919.78;2068501;69;20052;-72
2023/01/11 11:29:05;;;;;;;12.35;6.13;;;;;;;8.42;48.41;92915.47;2068577;69;20271;-72
2023/01/11 11:31:33;;;;;;;16.27;8.70;;;;;;;8.39;49.06;92906.19;2067790;69;20255;-74
2023/01/11 11:34:07;;;;;;;13.13;7.43;;;;;;;8.76;49.78;92900.38;2068614;69;20144;-76
2023/01/11 11:36:44;;;;;;;16.15;8.80;;;;;;;8.07;47.89;92893.34;2067913;69;20156;-77
2023/01/11 11:39:19;;;;;;;17.23;8.90;;;;;;;7.46;50.22;92894.44;2068068;69;20148;-77
2023/01/11 11:41:51;;;;;;;14.85;8.25;;;;;;;7.72;49.63;92890.78;2068741;69;20137;-77
2023/01/11 11:44:25;;;;;;;18.75;9.88;;;;;;;7.98;48.90;92882.84;2068684;69;20227;-73
2023/01/11 11:47:03;;;;;;;15.77;8.73;;;;;;;7.78;49.16;92882.09;2068574;69;20247;-74
2023/01/11 11:49:31;;;;;;;11.88;6.25;;;;;;;6.91;49.82;92877.00;2068062;69;20170;-74
2023/01/11 11:51:59;;;;;;;12.13;6.32;;;;;;;7.27;50.03;92870.66;2068509;69;20176;-73
2023/01/11 11:54:39;;;;;;;12.52;6.00;;;;;;;7.60;49.38;92859.78;2068601;69;20240;-76
2023/01/11 11:57:37;;;;;;;15.38;7.45;;;;;;;7.08;50.70;92828.59;2068715;69;20148;-73
2023/01/11 12:00:33;;;;;;;14.02;7.07;;;;;;;7.43;49.77;92840.34;2064966;69;20149;-74
2023/01/11 12:03:05;;;;;;;12.68;7.70;;;;;;;6.61;52.64;92844.66;2068038;69;20607;-74
2023/01/11 12:05:31;;;;;;;15.40;8.47;;;;;;;6.96;52.26;92841.69;2068750;69;20256;-73
2023/01/11 12:08:00;;;;;;;14.77;8.25;;;;;;;6.66;53.16;92849.22;2068846;69;20139;-74
2023/01/11 12:10:27;;;;;;;20.77;9.30;;;;;;;6.67;53.00;92847.16;2068766;69;20137;-74
2023/01/11 12:13:01;;;;;;;13.93;7.70;;;;;;;6.61;53.66;92844.66;2068124;69;20160;-76
2023/01/11 12:15:29;;;;;;;13.02;6.82;;;;;;;6.95;52.78;92835.34;2068760;69;20681;-75
2023/01/11 12:18:21;;;;;;;14.93;7.20;;;;;;;6.89;52.48;92832.09;2068628;69;20133;-78
2023/01/11 12:20:48;;;;;;;16.10;7.80;;;;;;;6.76;52.46;92838.81;2068054;69;20141;-75
2023/01/11 12:23:20;;;;;;;19.38;7.10;;;;;;;6.73;51.92;92837.16;2068021;69;20140;-76
2023/01/11 12:26:15;;;;;;;16.50;6.82;;;;;;;6.68;51.74;92824.19;2068609;69;20160;-76
2023/01/11 12:29:23;;;;;;;13.35;6.35;;;;;;;6.52;51.33;92806.19;2068228;69;20149;-77